sensor_id;sensor_type;location;lat;lon;timestamp;pressure;altitude;pressure_sealevel;temperature;humidity
24825;BME280;12910;57.690;11.974;2022-12-18T00:01:01;101351.31;;;1.11;100.00
24825;BME280;12910;57.690;11.974;2022-12-18T00:03:34;101360.63;;;1.12;100.00
24825;BME280;12910;57.690;11.974;2022-12-18T00:06:00;101342.88;;;1.11;100.00
24825;BME280;12910;57.690;11.974;2022-12-18T00:08:27;101356.34;;;1.11;100.00
24825;BME280;12910;57.690;11.974;2022-12-18T00:10:52;101347.81;;;1.09;100.00
24825;BME280;12910;57.690;11.974;2022-12-18T00:13:18;101349.59;;;1.10;100.00
24825;BME280;12910;57.690;11.974;2022-12-18T00:15:43;101346.84;;;1.07;100.00
24825;BME280;12910;57.690;11.974;2022-12-18T00:18:09;101338.28;;;1.05;100.00
24825;BME280;12910;57.690;11.974;2022-12-18T00:20:36;101338.88;;;1.01;100.00
24825;BME280;12910;57.690;11.974;2022-12-18T00:23:02;101344.69;;;1.00;100.00
24825;BME280;12910;57.690;11.974;2022-12-18T00:25:27;101353.81;;;0.98;100.00
24825;BME280;12910;57.690;11.974;2022-12-18T00:27:52;101364.56;;;0.95;100.00
24825;BME280;12910;57.690;11.974;2022-12-18T00:30:18;101336.50;;;0.90;100.00
24825;BME280;12910;57.690;11.974;2022-12-18T00:32:43;101338.72;;;0.86;100.00
24825;BME280;12910;57.690;11.974;2022-12-18T00:35:08;101346.94;;;0.83;100.00
24825;BME280;12910;57.690;11.974;2022-12-18T00:37:34;101346.53;;;0.77;100.00
24825;BME280;12910;57.690;11.974;2022-12-18T00:39:59;101340.31;;;0.72;100.00
24825;BME280;12910;57.690;11.974;2022-12-18T00:42:24;101346.78;;;0.68;100.00
24825;BME280;12910;57.690;11.974;2022-12-18T00:45:08;101350.75;;;0.65;100.00
24825;BME280;12910;57.690;11.974;2022-12-18T00:47:34;101353.25;;;0.65;100.00
24825;BME280;12910;57.690;11.974;2022-12-18T00:49:59;101345.50;;;0.61;100.00
24825;BME280;12910;57.690;11.974;2022-12-18T00:52:24;101349.34;;;0.56;100.00
24825;BME280;12910;57.690;11.974;2022-12-18T00:54:50;101355.16;;;0.55;100.00
24825;BME280;12910;57.690;11.974;2022-12-18T00:57:15;101351.09;;;0.57;100.00
24825;BME280;12910;57.690;11.974;2022-12-18T00:59:42;101359.66;;;0.59;100.00
24825;BME280;12910;57.690;11.974;2022-12-18T01:02:07;101345.50;;;0.61;100.00
24825;BME280;12910;57.690;11.974;2022-12-18T01:04:33;101352.09;;;0.59;100.00
24825;BME280;12910;57.690;11.974;2022-12-18T01:06:58;101348.66;;;0.59;100.00
24825;BME280;12910;57.690;11.974;2022-12-18T01:09:23;101349.56;;;0.59;100.00
24825;BME280;12910;57.690;11.974;2022-12-18T01:11:49;101358.88;;;0.60;100.00
24825;BME280;12910;57.690;11.974;2022-12-18T01:14:14;101360.50;;;0.60;100.00
24825;BME280;12910;57.690;11.974;2022-12-18T01:16:40;101353.63;;;0.57;100.00
24825;BME280;12910;57.690;11.974;2022-12-18T01:19:05;101362.84;;;0.57;100.00
24825;BME280;12910;57.690;11.974;2022-12-18T01:21:31;101366.31;;;0.59;100.00
24825;BME280;12910;57.690;11.974;2022-12-18T01:23:56;101359.53;;;0.58;100.00
24825;BME280;12910;57.690;11.974;2022-12-18T01:26:22;101370.28;;;0.55;100.00
24825;BME280;12910;57.690;11.974;2022-12-18T01:28:48;101377.31;;;0.59;100.00
24825;BME280;12910;57.690;11.974;2022-12-18T01:31:18;101380.38;;;0.55;100.00
24825;BME280;12910;57.690;11.974;2022-12-18T01:33:47;101374.56;;;0.56;100.00
24825;BME280;12910;57.690;11.974;2022-12-18T01:36:18;101381.81;;;0.52;100.00
24825;BME280;12910;57.690;11.974;2022-12-18T01:38:44;101379.38;;;0.53;100.00
24825;BME280;12910;57.690;11.974;2022-12-18T01:41:10;101371.72;;;0.52;100.00
24825;BME280;12910;57.690;11.974;2022-12-18T01:43:56;101376.00;;;0.53;100.00
24825;BME280;12910;57.690;11.974;2022-12-18T01:46:23;101361.53;;;0.50;100.00
24825;BME280;12910;57.690;11.974;2022-12-18T01:48:56;101377.66;;;0.52;100.00
24825;BME280;12910;57.690;11.974;2022-12-18T01:51:22;101361.53;;;0.50;100.00
24825;BME280;12910;57.690;11.974;2022-12-18T01:53:48;101358.81;;;0.47;100.00
24825;BME280;12910;57.690;11.974;2022-12-18T01:56:16;101363.06;;;0.48;100.00
24825;BME280;12910;57.690;11.974;2022-12-18T01:59:04;101358.91;;;0.49;100.00
24825;BME280;12910;57.690;11.974;2022-12-18T02:01:32;101342.91;;;0.48;100.00
24825;BME280;12910;57.690;11.974;2022-12-18T02:04:21;101362.22;;;0.48;100.00
24825;BME280;12910;57.690;11.974;2022-12-18T02:06:51;101344.44;;;0.46;100.00
24825;BME280;12910;57.690;11.974;2022-12-18T02:09:24;101324.72;;;0.40;100.00
24825;BME280;12910;57.690;11.974;2022-12-18T02:12:29;101344.66;;;0.49;100.00
24825;BME280;12910;57.690;11.974;2022-12-18T02:15:07;101344.97;;;0.54;100.00
24825;BME280;12910;57.690;11.974;2022-12-18T02:17:55;101351.31;;;0.60;100.00
24825;BME280;12910;57.690;11.974;2022-12-18T02:23:33;101349.59;;;0.73;100.00
24825;BME280;12910;57.690;11.974;2022-12-18T02:26:19;101343.34;;;0.80;100.00
24825;BME280;12910;57.690;11.974;2022-12-18T02:28:53;101343.66;;;0.84;100.00
24825;BME280;12910;57.690;11.974;2022-12-18T02:31:29;101343.88;;;0.87;100.00
24825;BME280;12910;57.690;11.974;2022-12-18T02:34:00;101345.81;;;0.91;100.00
24825;BME280;12910;57.690;11.974;2022-12-18T02:36:27;101344.25;;;0.93;100.00
24825;BME280;12910;57.690;11.974;2022-12-18T02:38:54;101346.91;;;0.95;100.00
24825;BME280;12910;57.690;11.974;2022-12-18T02:41:24;101338.56;;;0.96;100.00
24825;BME280;12910;57.690;11.974;2022-12-18T02:43:56;101338.66;;;0.98;100.00
24825;BME280;12910;57.690;11.974;2022-12-18T02:46:26;101346.44;;;1.01;100.00
24825;BME280;12910;57.690;11.974;2022-12-18T02:48:57;101349.75;;;1.00;100.00
24825;BME280;12910;57.690;11.974;2022-12-18T02:51:33;101357.63;;;1.04;100.00
24825;BME280;12910;57.690;11.974;2022-12-18T02:54:15;101357.63;;;1.04;100.00
24825;BME280;12910;57.690;11.974;2022-12-18T02:56:50;101355.75;;;1.02;100.00
24825;BME280;12910;57.690;11.974;2022-12-18T02:59:21;101354.63;;;1.10;100.00
24825;BME280;12910;57.690;11.974;2022-12-18T03:04:26;101364.13;;;1.14;100.00
24825;BME280;12910;57.690;11.974;2022-12-18T03:06:58;101362.59;;;1.16;100.00
24825;BME280;12910;57.690;11.974;2022-12-18T03:09:29;101355.13;;;1.18;100.00
24825;BME280;12910;57.690;11.974;2022-12-18T03:12:04;101356.78;;;1.17;100.00
24825;BME280;12910;57.690;11.974;2022-12-18T03:15:08;101360.16;;;1.18;100.00
24825;BME280;12910;57.690;11.974;2022-12-18T03:17:36;101356.19;;;1.21;100.00
24825;BME280;12910;57.690;11.974;2022-12-18T03:20:12;101354.44;;;1.20;100.00
24825;BME280;12910;57.690;11.974;2022-12-18T03:22:40;101348.63;;;1.21;100.00
24825;BME280;12910;57.690;11.974;2022-12-18T03:25:09;101367.28;;;1.23;100.00
24825;BME280;12910;57.690;11.974;2022-12-18T03:27:40;101351.34;;;1.24;100.00
24825;BME280;12910;57.690;11.974;2022-12-18T03:30:08;101368.25;;;1.26;100.00
24825;BME280;12910;57.690;11.974;2022-12-18T03:32:42;101363.97;;;1.24;100.00
24825;BME280;12910;57.690;11.974;2022-12-18T03:35:10;101355.63;;;1.26;100.00
24825;BME280;12910;57.690;11.974;2022-12-18T03:37:37;101352.25;;;1.25;100.00
24825;BME280;12910;57.690;11.974;2022-12-18T03:40:04;101352.13;;;1.23;100.00
24825;BME280;12910;57.690;11.974;2022-12-18T03:42:43;101343.78;;;1.24;100.00
24825;BME280;12910;57.690;11.974;2022-12-18T03:45:28;101353.09;;;1.26;100.00
24825;BME280;12910;57.690;11.974;2022-12-18T03:50:31;101364.97;;;1.27;100.00
24825;BME280;12910;57.690;11.974;2022-12-18T03:53:18;101345.91;;;1.18;100.00
24825;BME280;12910;57.690;11.974;2022-12-18T03:55:50;101365.72;;;1.26;100.00
24825;BME280;12910;57.690;11.974;2022-12-18T03:58:20;101363.00;;;1.22;100.00
24825;BME280;12910;57.690;11.974;2022-12-18T04:00:47;101362.44;;;1.27;100.00
24825;BME280;12910;57.690;11.974;2022-12-18T04:03:16;101359.03;;;1.26;100.00
24825;BME280;12910;57.690;11.974;2022-12-18T04:05:44;101352.56;;;1.30;100.00
24825;BME280;12910;57.690;11.974;2022-12-18T04:08:10;101352.44;;;1.28;100.00
24825;BME280;12910;57.690;11.974;2022-12-18T04:10:36;101356.50;;;1.26;100.00
24825;BME280;12910;57.690;11.974;2022-12-18T04:13:02;101370.22;;;1.30;100.00
24825;BME280;12910;57.690;11.974;2022-12-18T04:15:27;101367.69;;;1.30;100.00
24825;BME280;12910;57.690;11.974;2022-12-18T04:17:53;101368.34;;;1.27;100.00
24825;BME280;12910;57.690;11.974;2022-12-18T04:20:18;101371.00;;;1.29;100.00
24825;BME280;12910;57.690;11.974;2022-12-18T04:22:43;101366.81;;;1.29;100.00
24825;BME280;12910;57.690;11.974;2022-12-18T04:25:12;101364.97;;;1.27;100.00
24825;BME280;12910;57.690;11.974;2022-12-18T04:27:37;101373.53;;;1.29;100.00
24825;BME280;12910;57.690;11.974;2022-12-18T04:30:03;101373.63;;;1.30;100.00
24825;BME280;12910;57.690;11.974;2022-12-18T04:32:28;101383.72;;;1.30;100.00
24825;BME280;12910;57.690;11.974;2022-12-18T04:34:54;101380.31;;;1.30;100.00
24825;BME280;12910;57.690;11.974;2022-12-18T04:37:19;101389.63;;;1.31;100.00
24825;BME280;12910;57.690;11.974;2022-12-18T04:39:44;101388.84;;;1.32;100.00
24825;BME280;12910;57.690;11.974;2022-12-18T04:42:10;101387.09;;;1.31;100.00
24825;BME280;12910;57.690;11.974;2022-12-18T04:44:36;101371.56;;;1.24;100.00
24825;BME280;12910;57.690;11.974;2022-12-18T04:47:01;101376.91;;;1.29;100.00
24825;BME280;12910;57.690;11.974;2022-12-18T04:49:26;101365.81;;;1.27;100.00
24825;BME280;12910;57.690;11.974;2022-12-18T04:51:52;101371.84;;;1.29;100.00
24825;BME280;12910;57.690;11.974;2022-12-18T04:54:18;101372.53;;;1.27;100.00
24825;BME280;12910;57.690;11.974;2022-12-18T04:56:43;101371.75;;;1.28;100.00
24825;BME280;12910;57.690;11.974;2022-12-18T04:59:08;101384.47;;;1.29;100.00
24825;BME280;12910;57.690;11.974;2022-12-18T05:01:34;101373.63;;;1.30;100.00
24825;BME280;12910;57.690;11.974;2022-12-18T05:04:00;101388.09;;;1.33;100.00
24825;BME280;12910;57.690;11.974;2022-12-18T05:06:25;101397.31;;;1.32;100.00
24825;BME280;12910;57.690;11.974;2022-12-18T05:08:50;101403.44;;;1.36;100.00
24825;BME280;12910;57.690;11.974;2022-12-18T05:11:16;101389.75;;;1.32;100.00
24825;BME280;12910;57.690;11.974;2022-12-18T05:13:42;101370.41;;;1.33;100.00
24825;BME280;12910;57.690;11.974;2022-12-18T05:16:08;101384.09;;;1.36;100.00
24825;BME280;12910;57.690;11.974;2022-12-18T05:18:34;101380.03;;;1.38;100.00
24825;BME280;12910;57.690;11.974;2022-12-18T05:21:00;101389.47;;;1.41;100.00
24825;BME280;12910;57.690;11.974;2022-12-18T05:23:26;101382.78;;;1.42;100.00
24825;BME280;12910;57.690;11.974;2022-12-18T05:26:00;101381.22;;;1.44;100.00
24825;BME280;12910;57.690;11.974;2022-12-18T05:28:27;101380.44;;;1.45;100.00
24825;BME280;12910;57.690;11.974;2022-12-18T05:30:55;101372.75;;;1.43;100.00
24825;BME280;12910;57.690;11.974;2022-12-18T05:33:22;101385.69;;;1.48;100.00
24825;BME280;12910;57.690;11.974;2022-12-18T05:35:58;101388.31;;;1.49;100.00
24825;BME280;12910;57.690;11.974;2022-12-18T05:38:25;101383.47;;;1.52;100.00
24825;BME280;12910;57.690;11.974;2022-12-18T05:40:52;101390.28;;;1.53;100.00
24825;BME280;12910;57.690;11.974;2022-12-18T05:43:19;101391.94;;;1.53;100.00
24825;BME280;12910;57.690;11.974;2022-12-18T05:45:46;101398.84;;;1.55;100.00
24825;BME280;12910;57.690;11.974;2022-12-18T05:48:12;101407.28;;;1.56;100.00
24825;BME280;12910;57.690;11.974;2022-12-18T05:50:39;101402.34;;;1.58;100.00
24825;BME280;12910;57.690;11.974;2022-12-18T05:53:06;101399.81;;;1.58;100.00
24825;BME280;12910;57.690;11.974;2022-12-18T05:55:35;101396.31;;;1.55;100.00
24825;BME280;12910;57.690;11.974;2022-12-18T05:58:02;101391.25;;;1.55;100.00
24825;BME280;12910;57.690;11.974;2022-12-18T06:00:27;101386.97;;;1.54;100.00
24825;BME280;12910;57.690;11.974;2022-12-18T06:02:52;101395.31;;;1.53;100.00
24825;BME280;12910;57.690;11.974;2022-12-18T06:05:18;101409.50;;;1.51;100.00
24825;BME280;12910;57.690;11.974;2022-12-18T06:07:43;101417.09;;;1.51;100.00
24825;BME280;12910;57.690;11.974;2022-12-18T06:10:09;101396.88;;;1.51;100.00
24825;BME280;12910;57.690;11.974;2022-12-18T06:12:34;101407.19;;;1.54;100.00
24825;BME280;12910;57.690;11.974;2022-12-18T06:15:00;101412.25;;;1.54;100.00
24825;BME280;12910;57.690;11.974;2022-12-18T06:17:32;101416.63;;;1.57;100.00
24825;BME280;12910;57.690;11.974;2022-12-18T06:19:58;101419.25;;;1.59;100.00
24825;BME280;12910;57.690;11.974;2022-12-18T06:22:24;101419.25;;;1.59;100.00
24825;BME280;12910;57.690;11.974;2022-12-18T06:24:49;101429.38;;;1.59;100.00
24825;BME280;12910;57.690;11.974;2022-12-18T06:27:15;101420.22;;;1.61;100.00
24825;BME280;12910;57.690;11.974;2022-12-18T06:29:40;101420.22;;;1.61;100.00
24825;BME280;12910;57.690;11.974;2022-12-18T06:32:05;101420.97;;;1.60;100.00
24825;BME280;12910;57.690;11.974;2022-12-18T06:34:31;101416.91;;;1.62;100.00
24825;BME280;12910;57.690;11.974;2022-12-18T06:36:57;101424.50;;;1.62;100.00
24825;BME280;12910;57.690;11.974;2022-12-18T06:39:23;101411.84;;;1.62;100.00
24825;BME280;12910;57.690;11.974;2022-12-18T06:41:48;101416.91;;;1.62;100.00
24825;BME280;12910;57.690;11.974;2022-12-18T06:44:13;101423.81;;;1.64;100.00
24825;BME280;12910;57.690;11.974;2022-12-18T06:46:39;101416.91;;;1.62;100.00
24825;BME280;12910;57.690;11.974;2022-12-18T06:49:04;101418.66;;;1.63;100.00
24825;BME280;12910;57.690;11.974;2022-12-18T06:51:29;101416.81;;;1.60;100.00
24825;BME280;12910;57.690;11.974;2022-12-18T06:53:55;101425.38;;;1.62;100.00
24825;BME280;12910;57.690;11.974;2022-12-18T06:56:20;101421.19;;;1.63;100.00
24825;BME280;12910;57.690;11.974;2022-12-18T06:58:46;101433.06;;;1.64;100.00
24825;BME280;12910;57.690;11.974;2022-12-18T07:01:12;101430.44;;;1.62;100.00
24825;BME280;12910;57.690;11.974;2022-12-18T07:03:40;101435.50;;;1.62;100.00
24825;BME280;12910;57.690;11.974;2022-12-18T07:06:05;101436.34;;;1.63;100.00
24825;BME280;12910;57.690;11.974;2022-12-18T07:08:32;101445.00;;;1.66;100.00
24825;BME280;12910;57.690;11.974;2022-12-18T07:10:57;101429.84;;;1.66;100.00
24825;BME280;12910;57.690;11.974;2022-12-18T07:13:23;101443.38;;;1.67;100.00
24825;BME280;12910;57.690;11.974;2022-12-18T07:15:48;101445.91;;;1.67;100.00
24825;BME280;12910;57.690;11.974;2022-12-18T07:18:13;101448.31;;;1.65;100.00
24825;BME280;12910;57.690;11.974;2022-12-18T07:20:39;101451.91;;;1.69;100.00
24825;BME280;12910;57.690;11.974;2022-12-18T07:23:04;101457.94;;;1.71;100.00
24825;BME280;12910;57.690;11.974;2022-12-18T07:25:34;101459.63;;;1.70;100.00
24825;BME280;12910;57.690;11.974;2022-12-18T07:27:59;101467.50;;;1.75;100.00
24825;BME280;12910;57.690;11.974;2022-12-18T07:30:25;101458.25;;;1.76;100.00
24825;BME280;12910;57.690;11.974;2022-12-18T07:32:50;101454.94;;;1.77;100.00
24825;BME280;12910;57.690;11.974;2022-12-18T07:35:16;101462.63;;;1.78;100.00
24825;BME280;12910;57.690;11.974;2022-12-18T07:37:41;101469.34;;;1.78;100.00
24825;BME280;12910;57.690;11.974;2022-12-18T07:40:07;101482.19;;;1.81;100.00
24825;BME280;12910;57.690;11.974;2022-12-18T07:42:33;101478.09;;;1.83;100.00
24825;BME280;12910;57.690;11.974;2022-12-18T07:44:59;101478.97;;;1.83;100.00
24825;BME280;12910;57.690;11.974;2022-12-18T07:47:25;101468.66;;;1.80;100.00
24825;BME280;12910;57.690;11.974;2022-12-18T07:49:51;101472.94;;;1.81;100.00
24825;BME280;12910;57.690;11.974;2022-12-18T07:52:16;101474.91;;;1.85;100.00
24825;BME280;12910;57.690;11.974;2022-12-18T07:54:42;101466.91;;;1.79;100.00
24825;BME280;12910;57.690;11.974;2022-12-18T07:57:08;101482.50;;;1.85;100.00
24825;BME280;12910;57.690;11.974;2022-12-18T07:59:34;101476.53;;;1.85;100.00
24825;BME280;12910;57.690;11.974;2022-12-18T08:01:59;101476.66;;;1.86;100.00
24825;BME280;12910;57.690;11.974;2022-12-18T08:04:25;101482.50;;;1.85;100.00
24825;BME280;12910;57.690;11.974;2022-12-18T08:06:50;101484.34;;;1.88;100.00
24825;BME280;12910;57.690;11.974;2022-12-18T08:09:16;101497.06;;;1.90;100.00
24825;BME280;12910;57.690;11.974;2022-12-18T08:11:42;101502.03;;;1.88;100.00
24825;BME280;12910;57.690;11.974;2022-12-18T08:14:08;101514.00;;;1.91;100.00
24825;BME280;12910;57.690;11.974;2022-12-18T08:16:33;101507.94;;;1.89;100.00
24825;BME280;12910;57.690;11.974;2022-12-18T08:18:58;101519.94;;;1.91;100.00
24825;BME280;12910;57.690;11.974;2022-12-18T08:21:29;101532.59;;;1.91;100.00
24825;BME280;12910;57.690;11.974;2022-12-18T08:23:57;101527.41;;;1.90;100.00
24825;BME280;12910;57.690;11.974;2022-12-18T08:26:23;101532.47;;;1.90;100.00
24825;BME280;12910;57.690;11.974;2022-12-18T08:28:51;101534.53;;;1.95;100.00
24825;BME280;12910;57.690;11.974;2022-12-18T08:31:18;101531.91;;;1.94;100.00
24825;BME280;12910;57.690;11.974;2022-12-18T08:33:44;101540.25;;;1.93;100.00
24825;BME280;12910;57.690;11.974;2022-12-18T08:36:09;101532.88;;;1.96;100.00
24825;BME280;12910;57.690;11.974;2022-12-18T08:38:35;101547.28;;;1.97;100.00
24825;BME280;12910;57.690;11.974;2022-12-18T08:41:05;101554.19;;;1.99;100.00
24825;BME280;12910;57.690;11.974;2022-12-18T08:43:31;101554.19;;;1.99;100.00
24825;BME280;12910;57.690;11.974;2022-12-18T08:46:15;101541.41;;;1.98;100.00
24825;BME280;12910;57.690;11.974;2022-12-18T08:48:41;101549.13;;;1.99;100.00
24825;BME280;12910;57.690;11.974;2022-12-18T08:51:06;101555.06;;;2.00;100.00
24825;BME280;12910;57.690;11.974;2022-12-18T08:53:32;101565.28;;;2.01;100.00
24825;BME280;12910;57.690;11.974;2022-12-18T08:55:57;101566.91;;;2.01;100.00
24825;BME280;12910;57.690;11.974;2022-12-18T08:58:23;101567.81;;;2.01;100.00
24825;BME280;12910;57.690;11.974;2022-12-18T09:00:48;101575.50;;;2.03;100.00
24825;BME280;12910;57.690;11.974;2022-12-18T09:03:15;101573.94;;;2.05;100.00
24825;BME280;12910;57.690;11.974;2022-12-18T09:05:41;101581.63;;;2.07;100.00
24825;BME280;12910;57.690;11.974;2022-12-18T09:08:07;101588.22;;;2.05;100.00
24825;BME280;12910;57.690;11.974;2022-12-18T09:10:33;101575.50;;;2.03;100.00
24825;BME280;12910;57.690;11.974;2022-12-18T09:12:58;101591.53;;;2.03;100.00
24825;BME280;12910;57.690;11.974;2022-12-18T09:15:24;101585.69;;;2.05;100.00
24825;BME280;12910;57.690;11.974;2022-12-18T09:17:49;101584.84;;;2.04;100.00
24825;BME280;12910;57.690;11.974;2022-12-18T09:20:16;101585.69;;;2.05;100.00
24825;BME280;12910;57.690;11.974;2022-12-18T09:22:41;101590.66;;;2.03;100.00
24825;BME280;12910;57.690;11.974;2022-12-18T09:25:07;101593.19;;;2.03;100.00
24825;BME280;12910;57.690;11.974;2022-12-18T09:27:33;101591.66;;;2.05;100.00
24825;BME280;12910;57.690;11.974;2022-12-18T09:29:59;101587.16;;;2.01;100.00
24825;BME280;12910;57.690;11.974;2022-12-18T09:32:24;101588.34;;;2.06;100.00
24825;BME280;12910;57.690;11.974;2022-12-18T09:34:49;101599.41;;;2.08;100.00
24825;BME280;12910;57.690;11.974;2022-12-18T09:37:15;101606.06;;;2.06;100.00
24825;BME280;12910;57.690;11.974;2022-12-18T09:39:40;101607.78;;;2.07;100.00
24825;BME280;12910;57.690;11.974;2022-12-18T09:42:05;101602.72;;;2.07;100.00
24825;BME280;12910;57.690;11.974;2022-12-18T09:44:50;101588.53;;;2.09;100.00
24825;BME280;12910;57.690;11.974;2022-12-18T09:47:24;101592.72;;;2.09;100.00
24825;BME280;12910;57.690;11.974;2022-12-18T09:50:00;101603.81;;;2.11;100.00
24825;BME280;12910;57.690;11.974;2022-12-18T09:55:22;101592.81;;;2.10;100.00
24825;BME280;12910;57.690;11.974;2022-12-18T09:57:55;101595.34;;;2.10;100.00
24825;BME280;12910;57.690;11.974;2022-12-18T10:00:23;101595.25;;;2.09;100.00
24825;BME280;12910;57.690;11.974;2022-12-18T10:02:49;101579.78;;;2.04;100.00
24825;BME280;12910;57.690;11.974;2022-12-18T10:05:20;101590.66;;;2.03;100.00
24825;BME280;12910;57.690;11.974;2022-12-18T10:08:05;101588.69;;;1.99;100.00
24825;BME280;12910;57.690;11.974;2022-12-18T10:10:46;101592.19;;;2.01;100.00
24825;BME280;12910;57.690;11.974;2022-12-18T10:21:11;101614.66;;;1.96;100.00
24825;BME280;12910;57.690;11.974;2022-12-18T10:24:48;101625.84;;;2.00;100.00
24825;BME280;12910;57.690;11.974;2022-12-18T10:26:41;101614.75;;;1.98;100.00
24825;BME280;12910;57.690;11.974;2022-12-18T10:29:14;101615.56;;;1.97;100.00
24825;BME280;12910;57.690;11.974;2022-12-18T10:31:39;101626.63;;;1.99;100.00
24825;BME280;12910;57.690;11.974;2022-12-18T10:34:14;101630.13;;;2.01;100.00
24825;BME280;12910;57.690;11.974;2022-12-18T10:36:40;101627.59;;;2.01;100.00
24825;BME280;12910;57.690;11.974;2022-12-18T10:39:26;101646.28;;;2.03;100.00
24825;BME280;12910;57.690;11.974;2022-12-18T10:42:10;101631.13;;;2.03;100.00
24825;BME280;12910;57.690;11.974;2022-12-18T10:44:36;101634.63;;;2.05;100.00
24825;BME280;12910;57.690;11.974;2022-12-18T10:47:12;101652.53;;;2.08;100.00
24825;BME280;12910;57.690;11.974;2022-12-18T10:49:46;101645.91;;;2.10;100.00
24825;BME280;12910;57.690;11.974;2022-12-18T10:52:22;101654.03;;;2.18;100.00
24825;BME280;12910;57.690;11.974;2022-12-18T10:54:55;101660.94;;;2.21;100.00
24825;BME280;12910;57.690;11.974;2022-12-18T10:59:56;101663.09;;;2.28;100.00
24825;BME280;12910;57.690;11.974;2022-12-18T11:02:28;101658.03;;;2.28;100.00
24825;BME280;12910;57.690;11.974;2022-12-18T11:04:58;101658.94;;;2.28;100.00
24825;BME280;12910;57.690;11.974;2022-12-18T11:07:23;101647.84;;;2.26;100.00
24825;BME280;12910;57.690;11.974;2022-12-18T11:10:02;101653.19;;;2.31;100.00
24825;BME280;12910;57.690;11.974;2022-12-18T11:12:28;101644.84;;;2.32;100.00
24825;BME280;12910;57.690;11.974;2022-12-18T11:14:56;101651.19;;;2.39;100.00
24825;BME280;12910;57.690;11.974;2022-12-18T11:17:28;101645.22;;;2.38;100.00
24825;BME280;12910;57.690;11.974;2022-12-18T11:19:57;101649.44;;;2.38;100.00
24825;BME280;12910;57.690;11.974;2022-12-18T11:22:31;101662.09;;;2.38;100.00
24825;BME280;12910;57.690;11.974;2022-12-18T11:27:22;101659.41;;;2.36;100.00
24825;BME280;12910;57.690;11.974;2022-12-18T11:29:50;101662.94;;;2.38;100.00
24825;BME280;12910;57.690;11.974;2022-12-18T11:35:17;101675.41;;;2.35;100.00
24825;BME280;12910;57.690;11.974;2022-12-18T11:37:49;101682.09;;;2.34;100.00
24825;BME280;12910;57.690;11.974;2022-12-18T11:40:21;101668.94;;;2.27;100.00
24825;BME280;12910;57.690;11.974;2022-12-18T11:43:21;101682.78;;;2.32;100.00
24825;BME280;12910;57.690;11.974;2022-12-18T11:45:57;101681.25;;;2.34;100.00
24825;BME280;12910;57.690;11.974;2022-12-18T11:48:34;101694.75;;;2.34;100.00
24825;BME280;12910;57.690;11.974;2022-12-18T11:51:04;101672.88;;;2.35;100.00
24825;BME280;12910;57.690;11.974;2022-12-18T11:53:34;101678.03;;;2.37;100.00
24825;BME280;12910;57.690;11.974;2022-12-18T11:56:29;101684.16;;;2.40;100.00
24825;BME280;12910;57.690;11.974;2022-12-18T12:01:55;101690.09;;;2.41;100.00
24825;BME280;12910;57.690;11.974;2022-12-18T12:04:52;101686.78;;;2.42;100.00
24825;BME280;12910;57.690;11.974;2022-12-18T12:16:03;101710.25;;;2.39;100.00
24825;BME280;12910;57.690;11.974;2022-12-18T12:18:42;101710.25;;;2.39;100.00
24825;BME280;12910;57.690;11.974;2022-12-18T12:21:33;101715.22;;;2.38;100.00
24825;BME280;12910;57.690;11.974;2022-12-18T12:27:06;101727.72;;;2.36;100.00
24825;BME280;12910;57.690;11.974;2022-12-18T12:30:08;101732.16;;;2.39;100.00
24825;BME280;12910;57.690;11.974;2022-12-18T12:33:05;101731.47;;;2.41;100.00
24825;BME280;12910;57.690;11.974;2022-12-18T12:38:27;101721.13;;;2.38;100.00
24825;BME280;12910;57.690;11.974;2022-12-18T12:40:58;101729.94;;;2.43;100.00
24825;BME280;12910;57.690;11.974;2022-12-18T12:43:44;101711.22;;;2.41;100.00
24825;BME280;12910;57.690;11.974;2022-12-18T12:46:11;101719.03;;;2.44;100.00
24825;BME280;12910;57.690;11.974;2022-12-18T12:48:46;101716.28;;;2.41;100.00
24825;BME280;12910;57.690;11.974;2022-12-18T12:51:19;101709.94;;;2.34;100.00
24825;BME280;12910;57.690;11.974;2022-12-18T12:53:47;101720.00;;;2.46;100.00
24825;BME280;12910;57.690;11.974;2022-12-18T12:56:16;101721.88;;;2.49;100.00
24825;BME280;12910;57.690;11.974;2022-12-18T12:59:04;101724.72;;;2.54;100.00
24825;BME280;12910;57.690;11.974;2022-12-18T13:01:39;101717.13;;;2.54;100.00
24825;BME280;12910;57.690;11.974;2022-12-18T13:04:56;101729.00;;;2.55;100.00
24825;BME280;12910;57.690;11.974;2022-12-18T13:07:12;101734.06;;;2.55;100.00
24825;BME280;12910;57.690;11.974;2022-12-18T13:10:22;101742.59;;;2.57;100.00
24825;BME280;12910;57.690;11.974;2022-12-18T13:13:08;101741.97;;;2.59;100.00
24825;BME280;12910;57.690;11.974;2022-12-18T13:15:42;101747.13;;;2.61;100.00
24825;BME280;12910;57.690;11.974;2022-12-18T13:18:13;101735.31;;;2.61;100.00
24825;BME280;12910;57.690;11.974;2022-12-18T13:20:43;101737.09;;;2.62;100.00
24825;BME280;12910;57.690;11.974;2022-12-18T13:28:16;101724.13;;;2.58;100.00
24825;BME280;12910;57.690;11.974;2022-12-18T13:30:44;101742.59;;;2.57;100.00
24825;BME280;12910;57.690;11.974;2022-12-18T13:35:41;101728.78;;;2.52;100.00
24825;BME280;12910;57.690;11.974;2022-12-18T13:45:49;101737.69;;;2.46;100.00
24825;BME280;12910;57.690;11.974;2022-12-18T13:48:21;101727.28;;;2.42;100.00
24825;BME280;12910;57.690;11.974;2022-12-18T13:50:59;101738.47;;;2.45;100.00
24825;BME280;12910;57.690;11.974;2022-12-18T13:53:48;101736.16;;;2.48;100.00